Maersk Bulan — 9V7693 — position and weather

sailwx.info

Track history (hours):
 
Tides and Currents Weather Stations Pressure Air Temp Water Temp Dewpoint Dewpoint Depression Visibility Wind Speed Wind Dir Waves Ship Positions

Maersk Bulan

Last reported at 2017-May-20 13:51 UTC. Time now 2017-May-29 22:38 UTC.
Position N 09°15' W 079°55'.
Warning: this ship's position is 9 days out of date.

Length 223 m; draft 10.4 m.

Type: Ship (hazmat cat A). MMSI: 563455000.

Date/timePositionNaut miles runAvg speedWind from/ knotsBaromVisibWave heightAir tempDewpointWater temp
2017-May-20 13:51N 09°15' W 079°55'1 2.3
2017-May-20 13:28N 09°16' W 079°55'0 0.4
2017-May-20 13:00N 09°16' W 079°55'0 0.4
2017-May-20 12:20N 09°17' W 079°55'0 0.5
2017-May-20 11:54N 09°17' W 079°55'0 1.1
2017-May-20 11:30N 09°17' W 079°55'2 3.9
2017-May-20 11:00N 09°19' W 079°55'4 7.7
2017-May-20 10:31N 09°23' W 079°55'4 8.8
2017-May-20 10:00N 09°27' W 079°53'2 3.8
2017-May-20 09:29N 09°27' W 079°51'0 0.1
2017-May-20 08:56N 09°27' W 079°51'0 0.1
2017-May-20 08:23N 09°27' W 079°51'0 0.1
2017-May-20 07:59N 09°27' W 079°51'0 0.1
2017-May-20 07:29N 09°27' W 079°51'0 0.4
2017-May-20 06:59N 09°27' W 079°51'0 0.0
2017-May-20 06:29N 09°27' W 079°51'0 0.0
2017-May-20 05:59N 09°27' W 079°51'0 0.1
2017-May-20 05:26N 09°27' W 079°51'0 0.0
2017-May-20 04:56N 09°27' W 079°51'0 0.0
2017-May-20 04:29N 09°27' W 079°51'0 0.0
2017-May-20 03:56N 09°27' W 079°51'0 0.0
2017-May-20 03:23N 09°27' W 079°51'0 0.0
2017-May-20 02:59N 09°27' W 079°51'0 0.1
2017-May-20 02:29N 09°27' W 079°51'0 0.0
2017-May-20 01:56N 09°27' W 079°51'0 0.0
2017-May-20 01:29N 09°27' W 079°51'0 0.1
2017-May-20 00:59N 09°27' W 079°51'0 0.1
2017-May-20 00:29N 09°27' W 079°51'0 0.3
2017-May-19 23:59N 09°27' W 079°51'3 6.6
2017-May-19 23:30N 09°25' W 079°54'3 6.1
2017-May-19 22:58N 09°22' W 079°53'0 0.0
2017-May-19 22:28N 09°22' W 079°53'0 0.0
2017-May-19 21:58N 09°22' W 079°53'0 0.0
2017-May-19 21:28N 09°22' W 079°53'0 0.0
2017-May-19 20:58N 09°22' W 079°53'0 0.0
2017-May-19 20:19N 09°22' W 079°53'0 0.0
2017-May-19 19:58N 09°22' W 079°53'0 0.0
2017-May-19 19:28N 09°22' W 079°53'0 0.0
2017-May-19 18:58N 09°22' W 079°53'0 0.0
2017-May-19 18:25N 09°22' W 079°53'0 0.0
2017-May-19 17:58N 09°22' W 079°53'0 0.0
2017-May-19 17:28N 09°22' W 079°53'0 0.0
2017-May-19 16:58N 09°22' W 079°53'0 0.0
2017-May-19 16:28N 09°22' W 079°53'0 0.0
2017-May-19 15:58N 09°22' W 079°53'0 0.0
2017-May-19 15:28N 09°22' W 079°53'0 0.0
2017-May-19 14:58N 09°22' W 079°53'0 0.0
2017-May-19 13:58N 09°22' W 079°53'0 0.0
2017-May-19 13:19N 09°22' W 079°53'0 0.0
2017-May-19 12:49N 09°22' W 079°53'0 0.0
2017-May-19 12:28N 09°22' W 079°53'0 0.0
2017-May-19 11:58N 09°22' W 079°53'0 0.0
2017-May-19 11:28N 09°22' W 079°53'0 0.0
2017-May-19 11:01N 09°22' W 079°53'2 3.5
2017-May-19 10:31N 09°23' W 079°54'510.6
2017-May-19 10:00N 09°29' W 079°53'612.5
2017-May-19 09:30N 09°35' W 079°51'  
Track history (hours):
 
Tides and Currents Weather Stations Pressure Air Temp Water Temp Dewpoint Dewpoint Depression Visibility Wind Speed Wind Dir Waves Ship Positions

Maersk Bulan

Last reported at 2017-May-20 13:51 UTC. Time now 2017-May-29 22:38 UTC.
Position N 09°15' W 079°55'.
Warning: this ship's position is 9 days out of date.

Length 223 m; draft 10.4 m.

Type: Ship (hazmat cat A). MMSI: 563455000.

Date/timePositionNaut miles runAvg speedWind from/ knotsBaromVisibWave heightAir tempDewpointWater temp
2017-May-20 13:51N 09°15' W 079°55'1 2.3
2017-May-20 13:28N 09°16' W 079°55'0 0.4
2017-May-20 13:00N 09°16' W 079°55'0 0.4
2017-May-20 12:20N 09°17' W 079°55'0 0.5
2017-May-20 11:54N 09°17' W 079°55'0 1.1
2017-May-20 11:30N 09°17' W 079°55'2 3.9
2017-May-20 11:00N 09°19' W 079°55'4 7.7
2017-May-20 10:31N 09°23' W 079°55'4 8.8
2017-May-20 10:00N 09°27' W 079°53'2 3.8
2017-May-20 09:29N 09°27' W 079°51'0 0.1
2017-May-20 08:56N 09°27' W 079°51'0 0.1
2017-May-20 08:23N 09°27' W 079°51'0 0.1
2017-May-20 07:59N 09°27' W 079°51'0 0.1
2017-May-20 07:29N 09°27' W 079°51'0 0.4
2017-May-20 06:59N 09°27' W 079°51'0 0.0
2017-May-20 06:29N 09°27' W 079°51'0 0.0
2017-May-20 05:59N 09°27' W 079°51'0 0.1
2017-May-20 05:26N 09°27' W 079°51'0 0.0
2017-May-20 04:56N 09°27' W 079°51'0 0.0
2017-May-20 04:29N 09°27' W 079°51'0 0.0
2017-May-20 03:56N 09°27' W 079°51'0 0.0
2017-May-20 03:23N 09°27' W 079°51'0 0.0
2017-May-20 02:59N 09°27' W 079°51'0 0.1
2017-May-20 02:29N 09°27' W 079°51'0 0.0
2017-May-20 01:56N 09°27' W 079°51'0 0.0
2017-May-20 01:29N 09°27' W 079°51'0 0.1
2017-May-20 00:59N 09°27' W 079°51'0 0.1
2017-May-20 00:29N 09°27' W 079°51'0 0.3
2017-May-19 23:59N 09°27' W 079°51'3 6.6
2017-May-19 23:30N 09°25' W 079°54'3 6.1
2017-May-19 22:58N 09°22' W 079°53'0 0.0
2017-May-19 22:28N 09°22' W 079°53'0 0.0
2017-May-19 21:58N 09°22' W 079°53'0 0.0
2017-May-19 21:28N 09°22' W 079°53'0 0.0
2017-May-19 20:58N 09°22' W 079°53'0 0.0
2017-May-19 20:19N 09°22' W 079°53'0 0.0
2017-May-19 19:58N 09°22' W 079°53'0 0.0
2017-May-19 19:28N 09°22' W 079°53'0 0.0
2017-May-19 18:58N 09°22' W 079°53'0 0.0
2017-May-19 18:25N 09°22' W 079°53'0 0.0
2017-May-19 17:58N 09°22' W 079°53'0 0.0
2017-May-19 17:28N 09°22' W 079°53'0 0.0
2017-May-19 16:58N 09°22' W 079°53'0 0.0
2017-May-19 16:28N 09°22' W 079°53'0 0.0
2017-May-19 15:58N 09°22' W 079°53'0 0.0
2017-May-19 15:28N 09°22' W 079°53'0 0.0
2017-May-19 14:58N 09°22' W 079°53'0 0.0
2017-May-19 13:58N 09°22' W 079°53'0 0.0
2017-May-19 13:19N 09°22' W 079°53'0 0.0
2017-May-19 12:49N 09°22' W 079°53'0 0.0
2017-May-19 12:28N 09°22' W 079°53'0 0.0
2017-May-19 11:58N 09°22' W 079°53'0 0.0
2017-May-19 11:28N 09°22' W 079°53'0 0.0
2017-May-19 11:01N 09°22' W 079°53'2 3.5
2017-May-19 10:31N 09°23' W 079°54'510.6
2017-May-19 10:00N 09°29' W 079°53'612.5
2017-May-19 09:30N 09°35' W 079°51'  

Dump ship's entire track history